Data for 08/30/2014

Time Sea-Level Adjusted Pressure Absolute Pressure Temperature Relative Humidity Dew Point   
(mb) (inHg) (mb) (inHg) (C) (F) (%) (C) (F)
00:05 1015 29.97 844 24.92 19.2 66.6 41 5.7 42.3
00:10 1014 29.94 844 24.92 18.9 65.9 40 5 41
00:15 1015 29.97 844 24.92 18.9 66 44 6.5 43.7
00:20 1014 29.94 844 24.92 18.5 65.2 47 7 44.6
00:25 1014 29.94 843 24.89 17.9 64.2 49 7.2 44.9
00:30 1014 29.94 843 24.89 17.9 64.2 48 6.8 44.2
00:35 1014 29.94 844 24.92 17.9 64.2 48 6.8 44.3
00:40 1015 29.97 844 24.92 17.9 64.1 49 7.2 44.9
00:45 1015 29.97 844 24.92 17.8 64 48 6.8 44.2
00:50 1014 29.94 844 24.92 17.7 63.8 50 7.2 44.9
00:55 1014 29.94 844 24.92 17.5 63.6 50 7.1 44.8
01:00 1014 29.94 844 24.92 17.5 63.6 47 6.4 43.4
01:05 1014 29.94 843 24.89 17.8 64 48 6.8 44.3
01:10 1014 29.94 843 24.89 17.4 63.2 51 7.3 45.1
01:15 1014 29.94 843 24.89 16.9 62.5 53 7.3 45.2
01:20 1014 29.94 843 24.89 16.9 62.5 53 7.4 45.2
01:25 1014 29.94 843 24.89 16.8 62.2 54 7.5 45.6
01:30 1014 29.94 843 24.89 16.8 62.2 52 6.9 44.4
01:35 1014 29.94 843 24.89 16.8 62.2 54 7.5 45.5
01:40 1014 29.94 843 24.89 16.5 61.6 54 7.3 45.2
01:45 1014 29.94 843 24.89 16.3 61.3 54 7.2 44.9
01:50 1014 29.94 843 24.89 16.3 61.4 54 7.2 44.9
01:55 1014 29.94 843 24.89 16.3 61.3 54 7.1 44.7
02:00 1013 29.91 843 24.89 16.4 61.4 54 7.1 44.8
02:05 1013 29.91 843 24.89 16.2 61.1 54 7 44.6
02:10 1013 29.91 843 24.89 16.1 61 55 7.3 45.1
02:15 1013 29.91 842 24.86 15.8 60.5 59 8 46.4
02:20 1013 29.91 842 24.86 15.5 59.9 58 7.4 45.4
02:25 1013 29.91 842 24.86 15.8 60.4 53 6.4 43.6
02:30 1013 29.91 842 24.86 16.1 61 56 7.3 45.1
02:35 1013 29.91 842 24.86 16.1 61 53 6.5 43.7
02:40 1013 29.91 842 24.86 16.3 61.4 55 7.2 45
02:45 1013 29.91 843 24.89 16.2 61.1 56 7.6 45.6
02:50 1014 29.94 843 24.89 16.4 61.4 55 7.3 45.1
02:55 1013 29.91 843 24.89 16.2 61.1 51 6.1 42.9
03:00 1013 29.91 843 24.89 16.7 62.1 53 7.1 44.8
03:05 1014 29.94 843 24.89 16.6 61.9 47 5.4 41.7
03:10 1013 29.91 843 24.89 17.4 63.4 45 5.5 41.9
03:15 1013 29.91 843 24.89 17.9 64.3 46 6.2 43.2
03:20 1013 29.91 843 24.89 17.7 63.9 47 6.4 43.4
03:25 1013 29.91 843 24.89 17.1 62.7 51 7.1 44.7
03:30 1013 29.91 843 24.89 16.7 62.1 48 5.8 42.5
03:35 1013 29.91 843 24.89 17.1 62.8 47 5.8 42.5
03:40 1013 29.91 843 24.89 17.5 63.5 45 5.5 41.8
03:45 1013 29.91 843 24.89 18.1 64.5 43 5.6 42.1
03:50 1013 29.91 843 24.89 18.4 65.2 41 5 41
03:55 1014 29.94 843 24.89 18.5 65.3 45 6.4 43.5
04:00 1014 29.94 844 24.92 18 64.4 50 7.5 45.6
04:05 1015 29.97 844 24.92 16.9 62.3 55 8 46.3
04:10 1015 29.97 844 24.92 16.1 61.1 59 8.1 46.6
04:15 1015 29.97 844 24.92 15.8 60.5 61 8.5 47.3
04:20 1015 29.97 845 24.95 15.6 60.1 62 8.5 47.3
04:25 1016 30 845 24.95 15.5 59.8 62 8.3 46.9
04:30 1016 30 845 24.95 15.4 59.7 61 8.1 46.5
04:35 1016 30 845 24.95 15.4 59.7 62 8.3 46.9
04:40 1016 30 845 24.95 15.3 59.5 63 8.5 47.2
04:45 1016 30 845 24.95 15.1 59.3 67 9.1 48.3
04:50 1016 30 845 24.95 15.1 59.1 64 8.4 47.1
04:55 1016 30 846 24.98 15.1 59.1 64 8.5 47.2
05:00 1017 30.03 846 24.98 14.9 58.9 68 9 48.3
05:05 1017 30.03 846 24.98 14.6 58.3 70 9.3 48.7
05:10 1017 30.03 846 24.98 14.2 57.6 74 9.7 49.5
05:15 1017 30.03 846 24.98 13.8 56.9 76 9.7 49.5
05:20 1017 30.03 846 24.98 13.6 56.4 77 9.7 49.4
05:25 1017 30.03 846 24.98 13.3 55.9 76 9.3 48.7
05:30 1017 30.03 846 24.98 13.2 55.7 78 9.5 49.1
05:35 1017 30.03 846 24.98 13.1 55.5 77 9.2 48.6
05:40 1017 30.03 847 25.01 12.9 55.2 78 9.2 48.6
05:45 1017 30.03 846 24.98 12.6 54.6 83 9.7 49.5
05:50 1017 30.03 846 24.98 12.2 54 84 9.7 49.4
05:55 1017 30.03 846 24.98 12 53.5 87 9.8 49.6
06:00 1017 30.03 846 24.98 11.9 53.4 87 9.8 49.6
06:05 1017 30.03 846 24.98 11.8 53.2 83 9 48.1
06:10 1017 30.03 846 24.98 12 53.6 80 8.8 47.8
06:15 1017 30.03 846 24.98 12.1 53.8 83 9.3 48.7
06:20 1017 30.03 846 24.98 12.1 53.7 84 9.5 49
06:25 1017 30.03 846 24.98 12 53.6 86 9.7 49.5
06:30 1017 30.03 846 24.98 11.7 53.1 88 9.8 49.6
06:35 1016 30 846 24.98 11.5 52.6 89 9.7 49.5
06:40 1016 30 846 24.98 11.4 52.6 87 9.4 48.9
06:45 1016 30 846 24.98 11.7 53.1 84 9.1 48.3
06:50 1016 30 846 24.98 11.9 53.5 86 9.6 49.3
06:55 1016 30 845 24.95 12 53.5 84 9.3 48.8
07:00 1016 30 845 24.95 12 53.6 87 9.9 49.8
07:05 1016 30 845 24.95 11.9 53.4 89 10.1 50.2
07:10 1016 30 845 24.95 11.6 52.9 90 10 50
07:15 1016 30 845 24.95 11.5 52.7 89 9.8 49.7
07:20 1016 30 845 24.95 11.5 52.7 89 9.7 49.4
07:25 1015 29.97 845 24.95 11.5 52.8 87 9.5 49
07:30 1015 29.97 845 24.95 11.7 53 86 9.4 48.9
07:35 1016 30 845 24.95 11.8 53.2 85 9.4 48.9
07:40 1016 30 845 24.95 11.8 53.3 86 9.6 49.2
07:45 1016 30 845 24.95 11.9 53.4 85 9.5 49.1
07:50 1016 30 845 24.95 12.1 53.7 85 9.6 49.3
07:55 1015 29.97 845 24.95 12.2 54 86 10 49.9
08:00 1015 29.97 844 24.92 12.6 54.7 83 9.9 49.8
08:05 1015 29.97 844 24.92 12.7 54.8 84 10 50
08:10 1015 29.97 844 24.92 12.8 55 82 9.8 49.6
08:15 1015 29.97 844 24.92 13.2 55.7 82 10.3 50.5
08:20 1015 29.97 844 24.92 13.3 56 79 9.8 49.7
08:25 1015 29.97 844 24.92 13.5 56.2 79 9.9 49.9
08:30 1015 29.97 844 24.92 13.5 56.3 81 10.3 50.5
08:35 1015 29.97 844 24.92 13.7 56.7 80 10.4 50.7
08:40 1015 29.97 844 24.92 14.3 57.7 77 10.3 50.6
08:45 1015 29.97 844 24.92 14 57.2 80 10.7 51.3
08:50 1015 29.97 844 24.92 13.9 57.1 78 10.2 50.4
08:55 1015 29.97 844 24.92 14.3 57.8 77 10.3 50.5
09:00 1015 29.97 844 24.92 15 59 74 10.4 50.7
09:05 1015 29.97 844 24.92 15.1 59.3 74 10.6 51.1
09:10 1015 29.97 844 24.92 15.8 60.4 70 10.3 50.5
09:15 1015 29.97 844 24.92 15.7 60.3 71 10.5 51
09:20 1015 29.97 844 24.92 16 60.8 69 10.3 50.6
09:25 1015 29.97 844 24.92 15.8 60.5 68 10.1 50.2
09:30 1015 29.97 844 24.92 15.8 60.4 68 9.8 49.7
09:35 1015 29.97 844 24.92 15.7 60.3 67 9.6 49.3
09:40 1015 29.97 844 24.92 16 60.7 62 8.9 48
09:45 1015 29.97 844 24.92 15.9 60.5 64 9.1 48.4
09:50 1015 29.97 844 24.92 15.9 60.6 64 9.3 48.7
09:55 1015 29.97 844 24.92 16.2 61.2 65 9.6 49.3
10:00 1015 29.97 844 24.92 16.3 61.4 63 9.4 48.8
10:05 1015 29.97 844 24.92 16.5 61.7 62 9.3 48.8
10:10 1015 29.97 844 24.92 16.6 61.8 61 9.1 48.3
10:15 1015 29.97 844 24.92 16.4 61.6 61 9.1 48.3
10:20 1015 29.97 844 24.92 16.3 61.4 63 9.4 48.9
10:25 1015 29.97 844 24.92 16.1 61 65 9.7 49.4
10:30 1015 29.97 844 24.92 16 60.8 64 9.2 48.6
10:35 1015 29.97 844 24.92 15.8 60.5 64 9.2 48.6
10:40 1015 29.97 844 24.92 15.6 60.2 65 9.1 48.4
10:45 1015 29.97 844 24.92 15.7 60.2 64 9 48.3
10:50 1015 29.97 844 24.92 15.6 60 65 9 48.2
10:55 1015 29.97 844 24.92 15.5 59.9 66 9.2 48.5
11:00 1015 29.97 844 24.92 15.6 60.1 63 8.6 47.5
11:05 1015 29.97 844 24.92 15.7 60.3 63 8.7 47.7
11:10 1015 29.97 844 24.92 15.8 60.4 63 8.8 47.8
11:15 1015 29.97 844 24.92 15.9 60.5 62 8.7 47.7
11:20 1015 29.97 844 24.92 15.8 60.4 64 9 48.2
11:25 1015 29.97 844 24.92 15.7 60.2 64 9 48.3
11:30 1015 29.97 844 24.92 15.8 60.5 64 9 48.3
11:35 1014 29.94 844 24.92 15.9 60.6 65 9.4 48.9
11:40 1014 29.94 844 24.92 15.6 60 66 9.4 48.9
11:45 1015 29.97 844 24.92 15.6 60 65 9.2 48.5
11:50 1015 29.97 844 24.92 15.5 59.8 67 9.5 49
11:55 1015 29.97 844 24.92 15.4 59.7 66 9.2 48.6
12:00 1014 29.94 844 24.92 15.4 59.6 67 9.3 48.7
12:05 1014 29.94 844 24.92 15.5 59.8 67 9.4 48.9
12:10 1014 29.94 844 24.92 15.4 59.8 65 9 48.2
12:15 1014 29.94 844 24.92 15.4 59.7 65 9 48.2
12:20 1014 29.94 844 24.92 15.5 60 65 9 48.1
12:25 1014 29.94 843 24.89 15.6 60.1 65 9.2 48.5
12:30 1014 29.94 843 24.89 15.7 60.3 62 8.5 47.2
12:35 1014 29.94 843 24.89 16 60.8 62 8.9 48
12:40 1014 29.94 843 24.89 16.2 61.1 64 9.4 49
12:45 1014 29.94 843 24.89 16.1 61 66 9.8 49.7
12:50 1014 29.94 843 24.89 15.8 60.5 65 9.3 48.7
12:55 1014 29.94 843 24.89 15.7 60.3 64 9.1 48.4
13:00 1014 29.94 843 24.89 15.9 60.6 66 9.6 49.3
13:05 1014 29.94 844 24.92 16 60.8 60 8.2 46.8
13:10 1014 29.94 844 24.92 15.9 60.6 63 9.1 48.3
13:15 1015 29.97 844 24.92 15.6 60.2 67 9.6 49.3
13:20 1015 29.97 844 24.92 15 58.9 80 11.5 52.7
13:25 1015 29.97 844 24.92 13.6 56.4 86 11.3 52.4
13:30 1015 29.97 844 24.92 12.6 54.6 90 11 51.7
13:35 1015 29.97 844 24.92 12.3 54.2 90 10.8 51.4
13:40 1015 29.97 844 24.92 12.3 54.1 91 10.8 51.4
13:45 1015 29.97 844 24.92 11.8 53.3 90 10.3 50.5
13:50 1014 29.94 844 24.92 11.6 53 89 10 49.9
13:55 1014 29.94 843 24.89 11.6 52.8 90 10 50.1
14:00 1014 29.94 843 24.89 11.6 53 89 10 49.9
14:05 1014 29.94 843 24.89 11.8 53.3 87 9.8 49.6
14:10 1014 29.94 843 24.89 12.4 54.3 86 10.1 50.1
14:15 1014 29.94 843 24.89 12.9 55.2 85 10.4 50.7
14:20 1014 29.94 843 24.89 13.1 55.6 84 10.4 50.8
14:25 1014 29.94 843 24.89 13.4 56.2 79 9.9 49.8
14:30 1014 29.94 843 24.89 13.4 56.1 77 9.6 49.2
14:35 1014 29.94 843 24.89 13.5 56.3 75 9.2 48.6
14:40 1014 29.94 843 24.89 13.7 56.7 75 9.5 49.1
14:45 1014 29.94 843 24.89 13.9 56.9 74 9.4 49
14:50 1014 29.94 843 24.89 14 57.1 75 9.6 49.2
14:55 1014 29.94 843 24.89 14.1 57.3 77 10.1 50.2
15:00 1014 29.94 843 24.89 14.1 57.4 78 10.4 50.6
15:05 1014 29.94 843 24.89 14 57.1 78 10.2 50.4
15:10 1014 29.94 843 24.89 13.8 56.8 76 9.6 49.4
15:15 1014 29.94 843 24.89 13.8 56.8 76 9.6 49.3
15:20 1014 29.94 843 24.89 13.8 56.8 77 9.8 49.6
15:25 1014 29.94 843 24.89 13.8 56.8 76 9.6 49.3
15:30 1014 29.94 843 24.89 13.8 56.8 78 10.1 50.1
15:35 1014 29.94 843 24.89 13.8 56.9 76 9.7 49.4
15:40 1014 29.94 843 24.89 13.8 56.8 80 10.4 50.7
15:45 1014 29.94 843 24.89 13.7 56.6 78 10 50
15:50 1014 29.94 843 24.89 14 57.1 80 10.5 50.9
15:55 1014 29.94 844 24.92 14.1 57.5 77 10.1 50.2
16:00 1014 29.94 844 24.92 14.3 57.8 78 10.5 50.9
16:05 1014 29.94 844 24.92 14.3 57.7 77 10.4 50.7
16:10 1014 29.94 844 24.92 14.3 57.7 74 9.6 49.3
16:15 1015 29.97 844 24.92 14.1 57.4 71 8.9 48
16:20 1015 29.97 844 24.92 13.9 57 68 8.1 46.6
16:25 1015 29.97 844 24.92 13.6 56.4 79 10 50
16:30 1015 29.97 844 24.92 13.2 55.7 76 9 48.3
16:35 1015 29.97 844 24.92 13 55.4 78 9.2 48.6
16:40 1015 29.97 844 24.92 11.8 53.3 84 9.2 48.6
16:45 1015 29.97 844 24.92 11.4 52.5 86 9.2 48.5
16:50 1015 29.97 844 24.92 11.5 52.6 87 9.3 48.8
16:55 1015 29.97 844 24.92 11.7 53 87 9.6 49.2
17:00 1015 29.97 844 24.92 11.9 53.3 85 9.5 49.1
17:05 1015 29.97 844 24.92 11.9 53.4 86 9.7 49.4
17:10 1015 29.97 844 24.92 12.1 53.8 85 9.7 49.4
17:15 1015 29.97 844 24.92 12.2 54 84 9.7 49.5
17:20 1015 29.97 844 24.92 12 53.7 86 9.7 49.5
17:25 1015 29.97 844 24.92 12 53.7 85 9.5 49.2
17:30 1015 29.97 844 24.92 12.1 53.8 83 9.3 48.7
17:35 1015 29.97 845 24.95 12.3 54.1 82 9.4 48.8
17:40 1015 29.97 845 24.95 12.4 54.4 81 9.3 48.7
17:45 1015 29.97 845 24.95 12.5 54.4 82 9.5 49.1
17:50 1015 29.97 845 24.95 12.5 54.5 83 9.7 49.4
17:55 1015 29.97 845 24.95 12.7 54.9 82 9.7 49.5
18:00 1015 29.97 845 24.95 12.8 55 83 10 50
18:05 1015 29.97 845 24.95 12.8 55.1 83 10 50.1
18:10 1015 29.97 845 24.95 12.8 55.1 84 10.2 50.4
18:15 1015 29.97 844 24.92 12.8 55 82 9.8 49.6
18:20 1015 29.97 845 24.95 12.7 54.9 81 9.6 49.3
18:25 1015 29.97 845 24.95 12.7 54.8 81 9.4 49
18:30 1015 29.97 845 24.95 12.5 54.6 81 9.3 48.7
18:35 1015 29.97 844 24.92 12.4 54.4 81 9.2 48.6
18:40 1015 29.97 845 24.95 12.3 54.1 81 9.1 48.5
18:45 1015 29.97 845 24.95 12.2 53.9 83 9.3 48.8
18:50 1015 29.97 844 24.92 12.1 53.9 83 9.4 49
18:55 1015 29.97 844 24.92 12.1 53.7 84 9.4 49
19:00 1015 29.97 844 24.92 11.9 53.3 86 9.6 49.2
19:05 1015 29.97 844 24.92 11.6 52.8 87 9.5 49.1
19:10 1015 29.97 844 24.92 11.4 52.5 87 9.3 48.8
19:15 1015 29.97 844 24.92 11.2 52.2 88 9.3 48.7
19:20 1015 29.97 844 24.92 11.2 52.1 88 9.3 48.7
19:25 1015 29.97 844 24.92 11.1 52 88 9.2 48.6
19:30 1015 29.97 844 24.92 11.2 52.1 86 8.9 48.1
19:35 1015 29.97 844 24.92 11.2 52.1 85 8.8 47.9
19:40 1015 29.97 844 24.92 11.2 52.1 85 8.8 47.8
19:45 1015 29.97 844 24.92 11.2 52.1 86 8.9 48.1
19:50 1015 29.97 844 24.92 11.3 52.3 85 8.8 47.8
19:55 1015 29.97 844 24.92 11.1 52 85 8.6 47.5
20:00 1015 29.97 844 24.92 11 51.9 83 8.4 47
20:05 1015 29.97 844 24.92 11.2 52.2 80 7.8 46.1
20:10 1015 29.97 844 24.92 11.3 52.4 79 7.9 46.3
20:15 1015 29.97 844 24.92 11.1 51.9 85 8.6 47.5
20:20 1015 29.97 844 24.92 10.8 51.5 84 8.3 46.9
20:25 1015 29.97 844 24.92 10.7 51.3 86 8.4 47.1
20:30 1015 29.97 844 24.92 10.7 51.2 85 8.2 46.8
20:35 1015 29.97 844 24.92 10.7 51.3 84 8.2 46.8
20:40 1015 29.97 844 24.92 10.8 51.4 84 8.3 46.9
20:45 1015 29.97 844 24.92 10.8 51.5 84 8.2 46.8
20:50 1015 29.97 844 24.92 10.9 51.6 81 7.7 45.9
20:55 1015 29.97 844 24.92 11.1 51.9 81 8 46.4
21:00 1015 29.97 844 24.92 11.2 52.1 81 8.1 46.5
21:05 1015 29.97 844 24.92 11 51.9 83 8.2 46.8
21:10 1015 29.97 844 24.92 10.9 51.7 83 8.2 46.8
21:15 1015 29.97 844 24.92 11 51.9 83 8.3 47
21:20 1015 29.97 844 24.92 11.1 51.9 83 8.3 47
21:25 1015 29.97 844 24.92 11.1 52 82 8.2 46.7
21:30 1015 29.97 845 24.95 11.3 52.3 79 7.7 45.9
21:35 1015 29.97 845 24.95 11.4 52.5 77 7.5 45.6
21:40 1015 29.97 845 24.95 11.5 52.7 78 7.8 46
21:45 1015 29.97 845 24.95 11.5 52.7 79 7.9 46.3
21:50 1015 29.97 844 24.92 11.3 52.4 81 8.1 46.6
21:55 1015 29.97 844 24.92 11.2 52.2 79 7.8 46.1
22:00 1014 29.94 843 24.89 11.1 51.9 79 7.6 45.7
22:05 1014 29.94 844 24.92 10.8 51.4 79 7.2 45
22:10 1015 29.97 844 24.92 10.9 51.7 76 6.9 44.3
22:15 1015 29.97 844 24.92 11 51.8 81 7.8 46
22:20 1015 29.97 844 24.92 10.6 51.1 82 7.7 45.8
22:25 1015 29.97 844 24.92 10.6 51 75 6.4 43.6
22:30 1015 29.97 844 24.92 11.1 51.9 73 6.5 43.6
22:35 1015 29.97 844 24.92 11.5 52.8 70 6.2 43.2
22:40 1015 29.97 844 24.92 11.6 52.9 73 6.9 44.4
22:45 1015 29.97 844 24.92 11.2 52.1 74 6.7 44.1
22:50 1015 29.97 844 24.92 11 51.8 75 6.7 44
22:55 1015 29.97 844 24.92 11.1 51.9 76 7 44.6
23:00 1015 29.97 844 24.92 11 51.9 77 7.1 44.8
23:05 1015 29.97 844 24.92 11 51.8 78 7.4 45.3
23:10 1015 29.97 844 24.92 10.9 51.6 77 7 44.5
23:15 1015 29.97 844 24.92 11 51.8 75 6.7 44
23:20 1015 29.97 844 24.92 11 51.9 81 8 46.4
23:25 1015 29.97 844 24.92 10.6 51.1 80 7.4 45.3
23:30 1015 29.97 844 24.92 10.4 50.7 81 7.2 45
23:35 1015 29.97 844 24.92 10.5 50.8 76 6.5 43.8
23:40 1015 29.97 844 24.92 10.7 51.3 76 6.6 43.9
23:45 1015 29.97 844 24.92 11 51.7 73 6.3 43.4
23:50 1015 29.97 844 24.92 11.2 52.1 77 7.3 45.1
23:55 1015 29.97 844 24.92 11 51.8 80 7.7 45.9
24:00 1015 29.97 844 24.92 10.7 51.3 80 7.4 45.4